Time;durP1;ratioP1;P1;durP2;ratioP2;P2;SDS_P1;SDS_P2;PMS_P1;PMS_P2;Temp;Humidity;BMP_temperature;BMP_pressure;BME280_temperature;BME280_humidity;BME280_pressure;Samples;Min_cycle;Max_cycle;Signal;HPM_P1;HPM_P2
2022/12/15 00:40:03;;;;;;;7.43;4.97;;;-3.00;99.90;;;;;;4957283;29;20257;-90
2022/12/15 00:42:29;;;;;;;5.73;3.70;;;;;;;;;;4939982;29;20239;-90
2022/12/15 00:44:56;;;;;;;6.47;5.57;;;;;;;;;;4957549;29;20187;-90
2022/12/15 00:47:22;;;;;;;3.20;2.90;;;;;;;;;;4940029;29;20189;-91
2022/12/15 01:22:59;;;;;;;4.70;4.07;;;;;;;;;;4997369;28;20197;-91
2022/12/15 01:25:26;;;;;;;6.37;3.80;;;-2.90;99.90;;;;;;4962136;28;20558;-91
2022/12/15 01:27:52;;;;;;;4.53;4.17;;;;;;;;;;4977426;28;20719;-91
2022/12/15 01:30:23;;;;;;;3.60;2.80;;;-3.00;99.90;;;;;;4995117;28;20198;-92
2022/12/15 01:32:49;;;;;;;9.80;5.17;;;;;;;;;;4966963;28;20193;-91
2022/12/15 01:35:16;;;;;;;7.97;4.97;;;;;;;;;;4958668;28;20251;-91
2022/12/15 01:37:42;;;;;;;3.93;3.43;;;;;;;;;;4958551;28;20276;-91
2022/12/15 01:42:57;;;;;;;3.10;2.90;;;;;;;;;;4975508;28;20328;-91
2022/12/15 01:45:23;;;;;;;3.77;3.47;;;;;;;;;;4958930;28;20214;-91
2022/12/15 01:48:11;;;;;;;7.13;4.27;;;-3.00;99.90;;;;;;4958151;28;20274;-90
2022/12/15 01:50:43;;;;;;;9.23;3.13;;;-3.00;99.90;;;;;;4975094;28;20182;-91
2022/12/15 01:53:10;;;;;;;4.80;4.13;;;-3.00;99.90;;;;;;4976280;28;20233;-91
2022/12/15 01:55:38;;;;;;;10.47;4.47;;;-3.00;99.90;;;;;;4964165;28;20526;-91
2022/12/15 01:58:07;;;;;;;12.90;3.97;;;-3.00;99.90;;;;;;4981806;28;20656;-91
2022/12/15 02:00:35;;;;;;;4.17;3.83;;;-3.00;99.90;;;;;;4975443;28;20186;-91
2022/12/15 02:03:01;;;;;;;22.33;6.73;;;;;;;;;;4975342;28;20187;-91
2022/12/15 02:05:31;;;;;;;5.93;5.53;;;-3.00;99.90;;;;;;4975514;28;20235;-91
2022/12/15 02:07:59;;;;;;;7.80;5.43;;;-2.90;99.90;;;;;;4958727;28;20182;-91
2022/12/15 02:10:32;;;;;;;15.23;4.37;;;-2.90;99.90;;;;;;4975701;28;20187;-91
2022/12/15 02:13:41;;;;;;;2.47;2.37;;;-3.00;99.90;;;;;;4957845;28;20254;-90
2022/12/15 02:16:17;;;;;;;4.00;3.53;;;-2.80;99.90;;;;;;4928247;29;20554;-92
2022/12/15 02:18:54;;;;;;;6.10;4.10;;;-3.10;99.90;;;;;;4938418;29;20310;-91
2022/12/15 02:21:30;;;;;;;3.87;2.43;;;-3.00;99.90;;;;;;4955181;28;20206;-91
2022/12/15 02:24:17;;;;;;;6.93;4.60;;;-2.90;99.90;;;;;;4955795;29;20210;-92
2022/12/15 02:27:08;;;;;;;2.87;2.67;;;-3.00;99.90;;;;;;4955705;29;20273;-92
2022/12/15 02:30:04;;;;;;;7.40;5.23;;;-2.90;99.90;;;;;;4955862;29;20682;-92
2022/12/15 02:32:48;;;;;;;8.73;4.90;;;-2.10;99.90;;;;;;4955568;29;20644;-91
2022/12/15 02:35:40;;;;;;;8.47;5.93;;;1.10;99.90;;;;;;4938736;29;20179;-91
2022/12/15 02:38:08;;;;;;;9.83;4.00;;;-2.80;99.90;;;;;;4938269;29;20219;-91
2022/12/15 02:40:34;;;;;;;3.87;3.53;;;;;;;;;;4938359;29;20190;-91
2022/12/15 02:43:02;;;;;;;4.97;4.57;;;-2.60;99.90;;;;;;4955573;29;20758;-91
2022/12/15 02:46:10;;;;;;;6.63;4.30;;;-2.80;99.90;;;;;;4955243;29;20209;-91
2022/12/15 02:49:07;;;;;;;3.50;3.20;;;-2.70;99.90;;;;;;4944886;29;20199;-90
2022/12/15 02:51:51;;;;;;;5.07;2.83;;;-2.70;99.90;;;;;;4938106;29;20190;-91
2022/12/15 02:54:50;;;;;;;3.37;1.63;;;-2.70;99.90;;;;;;4955360;29;20253;-90
2022/12/15 02:57:42;;;;;;;15.43;2.40;;;-2.60;99.90;;;;;;4954327;29;20694;-91
2022/12/15 03:00:10;;;;;;;2.47;2.30;;;-2.60;99.90;;;;;;4955520;29;20183;-91
2022/12/15 03:02:41;;;;;;;2.17;2.00;;;-2.60;99.90;;;;;;4955380;29;20265;-91
2022/12/15 03:05:08;;;;;;;2.10;2.00;;;-2.60;99.90;;;;;;4955257;29;20318;-91
2022/12/15 03:07:34;;;;;;;4.83;4.40;;;;;;;;;;4938702;29;20190;-91
2022/12/15 03:10:03;;;;;;;2.97;2.70;;;-2.50;99.90;;;;;;4922248;29;20648;-91
2022/12/15 03:12:29;;;;;;;6.00;3.13;;;;;;;;;;4955306;29;20246;-92
2022/12/15 03:14:54;;;;;;;3.27;2.73;;;;;;;;;;4938072;29;20183;-91
2022/12/15 03:17:20;;;;;;;3.80;3.50;;;-2.40;99.90;;;;;;4922084;29;20239;-91
2022/12/15 03:19:46;;;;;;;4.57;2.77;;;;;;;;;;4954965;29;20337;-90
2022/12/15 03:22:12;;;;;;;3.50;3.20;;;-2.40;99.90;;;;;;4937859;29;20190;-91
2022/12/15 03:24:38;;;;;;;6.47;3.00;;;;;;;;;;4938220;29;20185;-91
2022/12/15 03:27:04;;;;;;;5.73;3.97;;;;;;;;;;4954660;29;20191;-90
2022/12/15 03:29:30;;;;;;;3.60;3.30;;;;;;;;;;4922130;29;20250;-91
2022/12/15 03:31:56;;;;;;;2.57;2.47;;;;;;;;;;4937907;28;20707;-91
2022/12/15 03:34:22;;;;;;;2.30;2.20;;;;;;;;;;4967466;28;20285;-90
2022/12/15 03:36:48;;;;;;;1.93;1.87;;;;;;;;;;4968779;28;20191;-90
2022/12/15 03:39:14;;;;;;;5.60;2.60;;;;;;;;;;4933178;28;20207;-90
2022/12/15 03:41:40;;;;;;;2.70;2.40;;;;;;;;;;4949377;28;20182;-91
2022/12/15 03:44:06;;;;;;;2.17;2.00;;;;;;;;;;4968413;28;20472;-91
2022/12/15 03:46:32;;;;;;;7.20;3.37;;;;;;;;;;4969717;28;20201;-91
2022/12/15 03:48:58;;;;;;;5.60;4.47;;;;;;;;;;4967404;28;20272;-90
2022/12/15 03:51:24;;;;;;;5.93;2.80;;;;;;;;;;4951362;28;20771;-92
2022/12/15 03:53:51;;;;;;;9.23;3.67;;;;;;;;;;4950845;28;20213;-93
2022/12/15 03:56:17;;;;;;;3.73;3.40;;;;;;;;;;4968622;28;20272;-92
2022/12/15 03:58:43;;;;;;;2.13;2.03;;;;;;;;;;4969152;28;20229;-90
2022/12/15 04:01:24;;;;;;;3.13;2.37;;;-2.20;99.90;;;;;;4974198;28;21022;-90
2022/12/15 04:03:50;;;;;;;5.97;3.13;;;;;;;;;;4940028;29;20230;-90
2022/12/15 04:06:16;;;;;;;2.87;2.63;;;;;;;;;;4924125;29;20199;-91
2022/12/15 04:08:42;;;;;;;3.17;2.80;;;;;;;;;;4925150;29;20192;-90
2022/12/15 04:11:08;;;;;;;3.27;2.43;;;;;;;;;;4957979;29;20248;-92
2022/12/15 04:13:34;;;;;;;3.83;3.13;;;;;;;;;;4940968;29;20596;-90
2022/12/15 04:16:01;;;;;;;6.20;4.83;;;-1.80;99.90;;;;;;4956615;29;20210;-90
2022/12/15 04:18:27;;;;;;;2.90;2.30;;;;;;;;;;4956435;29;20207;-90
2022/12/15 04:20:54;;;;;;;5.70;3.20;;;;;;;;;;4923888;29;20191;-89
2022/12/15 04:23:20;;;;;;;2.80;2.50;;;-1.90;99.90;;;;;;4940390;29;20198;-90
2022/12/15 05:31:57;;;;;;;10.00;1.93;;;;;;;;;;4963889;28;20205;-89
2022/12/15 05:34:31;;;;;;;4.60;3.20;;;-1.70;99.90;;;;;;4955799;28;20251;-89
2022/12/15 05:36:58;;;;;;;3.40;3.10;;;2.60;99.90;;;;;;4955832;28;20233;-90
2022/12/15 05:39:25;;;;;;;5.97;3.77;;;-1.80;99.90;;;;;;4955947;29;20235;-90
2022/12/15 05:41:52;;;;;;;5.37;4.23;;;-0.20;99.90;;;;;;4956346;29;20189;-89
2022/12/15 05:44:19;;;;;;;4.47;3.47;;;;;;;;;;4944893;28;20674;-89
2022/12/15 05:46:45;;;;;;;5.53;3.13;;;-1.60;99.90;;;;;;4958318;28;20645;-90
2022/12/15 05:49:16;;;;;;;2.50;2.33;;;-1.80;99.90;;;;;;4976055;28;20182;-88
2022/12/15 05:51:43;;;;;;;4.13;3.77;;;-1.70;99.90;;;;;;4975623;28;20177;-90
2022/12/15 05:54:11;;;;;;;4.53;3.20;;;-1.80;99.90;;;;;;4958060;28;20775;-90
2022/12/15 05:56:37;;;;;;;2.63;2.53;;;;;;;;;;4960581;28;20253;-90
2022/12/15 05:59:04;;;;;;;6.27;4.00;;;-1.70;99.90;;;;;;4969171;28;20232;-89
2022/12/15 06:01:30;;;;;;;3.33;2.83;;;;;;;;;;4971579;28;20541;-90
2022/12/15 06:03:57;;;;;;;7.70;4.67;;;-1.70;99.90;;;;;;4968922;28;20555;-90
2022/12/15 06:06:23;;;;;;;4.97;3.87;;;;;;;;;;4962746;28;20187;-90
2022/12/15 06:08:49;;;;;;;4.60;2.63;;;;;;;;;;4937202;28;20194;-90
2022/12/15 06:11:16;;;;;;;5.37;3.63;;;-1.60;99.90;;;;;;4975459;28;20207;-90
2022/12/15 06:13:43;;;;;;;3.23;3.03;;;;;;;;;;4965874;28;20198;-90
2022/12/15 06:16:17;;;;;;;2.47;2.17;;;-1.50;99.90;;;;;;4955597;28;20201;-91
2022/12/15 06:18:45;;;;;;;3.67;2.77;;;-1.70;99.90;;;;;;4948179;28;20227;-91
2022/12/15 06:21:14;;;;;;;6.83;5.23;;;-1.70;99.90;;;;;;4956278;28;20182;-90
2022/12/15 06:23:41;;;;;;;4.60;3.17;;;;;;;;;;4973142;28;20216;-90
2022/12/15 06:26:28;;;;;;;4.67;3.17;;;-1.70;99.90;;;;;;4955197;28;20198;-89
2022/12/15 06:28:57;;;;;;;4.47;3.57;;;-1.70;99.90;;;;;;4972109;28;20191;-90
2022/12/15 06:31:24;;;;;;;6.83;3.30;;;;;;;;;;4977773;28;20648;-90
2022/12/15 06:33:50;;;;;;;4.33;3.13;;;;;;;;;;4957613;28;20211;-91
2022/12/15 06:36:17;;;;;;;7.13;3.80;;;;;;;;;;4972663;28;20194;-91
2022/12/15 06:38:43;;;;;;;3.50;3.20;;;;;;;;;;4955523;28;20272;-91
2022/12/15 06:41:11;;;;;;;5.00;3.90;;;-1.60;99.90;;;;;;4972319;28;20189;-89
2022/12/15 06:43:37;;;;;;;6.47;4.27;;;;;;;;;;4956707;28;20274;-91
2022/12/15 06:46:03;;;;;;;3.77;2.60;;;;;;;;;;4973546;28;20251;-91
2022/12/15 06:48:30;;;;;;;10.37;5.30;;;;;;;;;;4956174;28;20210;-90
2022/12/15 06:50:56;;;;;;;5.23;4.30;;;;;;;;;;4936078;28;20199;-89
2022/12/15 06:53:23;;;;;;;7.13;4.07;;;-1.70;99.90;;;;;;4953427;28;20188;-91
2022/12/15 06:55:49;;;;;;;3.60;3.27;;;;;;;;;;4924113;28;20189;-88
2022/12/15 06:58:16;;;;;;;7.93;2.47;;;;;;;;;;4942352;28;20222;-90
2022/12/15 07:00:44;;;;;;;3.47;3.17;;;-1.70;99.90;;;;;;4937401;28;20565;-92
2022/12/15 07:03:14;;;;;;;10.77;4.23;;;-1.70;99.90;;;;;;4951730;28;20664;-88
2022/12/15 07:05:39;;;;;;;6.27;4.40;;;-1.70;99.90;;;;;;4934659;28;20192;-90
2022/12/15 07:08:05;;;;;;;2.93;2.73;;;;;;;;;;4947524;28;20678;-91
2022/12/15 07:10:31;;;;;;;9.67;4.23;;;-1.70;99.90;;;;;;4935450;29;20705;-88
2022/12/15 07:12:57;;;;;;;7.80;3.80;;;-1.50;99.90;;;;;;4939621;28;20230;-89
2022/12/15 07:15:23;;;;;;;4.37;3.83;;;0.20;99.90;;;;;;4960496;28;20197;-87
2022/12/15 07:17:49;;;;;;;10.67;4.97;;;;;;;;;;4942110;28;20214;-88
2022/12/15 07:20:16;;;;;;;4.27;3.17;;;-1.70;99.90;;;;;;4920550;29;20722;-89
2022/12/15 07:22:41;;;;;;;5.63;5.10;;;-1.60;99.90;;;;;;4957537;28;20208;-88
2022/12/15 07:25:08;;;;;;;4.73;3.63;;;-1.60;99.90;;;;;;4962594;28;20192;-89
2022/12/15 07:27:34;;;;;;;10.67;4.50;;;;;;;;;;4932799;28;20668;-89
2022/12/15 07:30:00;;;;;;;5.00;3.80;;;;;;;;;;4962458;28;20201;-89
2022/12/15 07:32:26;;;;;;;12.07;4.50;;;;;;;;;;4939454;28;20282;-89
2022/12/15 07:34:52;;;;;;;7.03;3.57;;;;;;;;;;4965680;28;20219;-88
2022/12/15 07:37:18;;;;;;;5.27;3.43;;;;;;;;;;4968239;28;20192;-91
2022/12/15 07:39:44;;;;;;;18.17;5.40;;;;;;;;;;4960809;28;20214;-90
2022/12/15 07:42:10;;;;;;;6.67;4.43;;;-1.40;99.90;;;;;;4900227;28;1110577;-91
2022/12/15 07:44:35;;;;;;;4.67;4.03;;;-1.50;99.90;;;;;;4962407;28;20235;-91
2022/12/15 07:47:01;;;;;;;3.33;3.07;;;;;;;;;;4939522;28;20182;-89
2022/12/15 07:49:27;;;;;;;2.43;2.23;;;-1.40;99.90;;;;;;4953237;28;20206;-91
2022/12/15 07:51:57;;;;;;;10.87;4.40;;;;;;;;;;4940961;28;20224;-90
2022/12/15 07:54:23;;;;;;;7.70;4.87;;;;;;;;;;4969347;28;20589;-92
2022/12/15 07:56:49;;;;;;;6.53;3.10;;;;;;;;;;4953027;28;20202;-90
2022/12/15 07:59:16;;;;;;;6.97;3.30;;;;;;;;;;4955457;28;20680;-91
2022/12/15 08:01:42;;;;;;;2.57;2.47;;;;;;;;;;4956459;28;20604;-91
2022/12/15 08:04:09;;;;;;;5.20;4.00;;;-1.70;99.90;;;;;;4973932;28;20187;-91
2022/12/15 08:06:35;;;;;;;16.47;4.60;;;;;;;;;;4963662;28;20195;-90
2022/12/15 08:09:01;;;;;;;6.77;3.93;;;;;;;;;;4970178;28;20265;-90
2022/12/15 08:11:27;;;;;;;11.93;4.00;;;;;;;;;;4944431;28;20193;-92
2022/12/15 08:13:53;;;;;;;3.37;2.93;;;;;;;;;;4945794;28;20198;-90
2022/12/15 08:16:19;;;;;;;3.43;3.13;;;;;;;;;;4978071;28;20254;-93
2022/12/15 08:18:46;;;;;;;6.37;3.57;;;;;;;;;;4976070;28;20215;-90
2022/12/15 08:21:14;;;;;;;4.13;3.77;;;-1.40;99.90;;;;;;4958710;28;20194;-89
2022/12/15 08:23:40;;;;;;;3.60;2.90;;;;;;;;;;4966059;28;20207;-88
2022/12/15 08:26:11;;;;;;;5.40;2.37;;;-1.50;99.90;;;;;;4948987;28;20198;-90
2022/12/15 08:28:38;;;;;;;8.07;4.03;;;-1.40;99.90;;;;;;4948045;28;20198;-90
2022/12/15 08:31:11;;;;;;;9.93;5.10;;;-1.40;99.90;;;;;;4964472;28;20189;-88
2022/12/15 08:33:37;;;;;;;7.90;4.63;;;;;;;;;;4947621;28;20282;-87
2022/12/15 08:36:06;;;;;;;4.00;3.40;;;-1.30;99.90;;;;;;4945434;28;20188;-90
2022/12/15 08:38:33;;;;;;;11.83;5.70;;;-1.40;99.90;;;;;;4964933;28;20337;-89
2022/12/15 08:41:10;;;;;;;8.33;4.57;;;-1.40;99.90;;;;;;4971823;28;20209;-88
2022/12/15 08:43:36;;;;;;;3.10;2.70;;;;;;;;;;4965616;28;20234;-86
2022/12/15 08:46:03;;;;;;;9.63;5.10;;;-1.40;99.90;;;;;;4977910;28;20203;-89
2022/12/15 08:48:29;;;;;;;3.70;2.90;;;;;;;;;;4961101;28;20201;-89
2022/12/15 08:50:56;;;;;;;3.50;3.20;;;-1.40;99.90;;;;;;4963766;28;20196;-88
2022/12/15 08:53:22;;;;;;;6.87;3.07;;;;;;;;;;4983426;28;20268;-87
2022/12/15 08:55:48;;;;;;;4.60;3.07;;;-1.50;99.90;;;;;;4994000;28;20664;-87
2022/12/15 08:58:14;;;;;;;9.47;4.13;;;;;;;;;;4980337;28;20204;-89
2022/12/15 09:00:40;;;;;;;3.87;3.30;;;;;;;;;;5002800;28;20189;-88
2022/12/15 09:03:06;;;;;;;7.83;4.60;;;;;;;;;;4986951;28;20299;-88
2022/12/15 09:05:39;;;;;;;5.73;3.93;;;-1.60;99.90;;;;;;4978448;28;20199;-87
2022/12/15 09:08:05;;;;;;;12.50;5.73;;;-1.40;99.90;;;;;;4962273;28;20187;-88
2022/12/15 09:10:31;;;;;;;8.33;4.03;;;;;;;;;;4977874;28;20625;-87
2022/12/15 09:12:57;;;;;;;13.63;4.63;;;;;;;;;;4995198;28;20187;-88
2022/12/15 09:15:23;;;;;;;4.87;3.10;;;;;;;;;;4970645;28;20219;-92
2022/12/15 09:17:49;;;;;;;7.67;3.93;;;;;;;;;;4974643;28;20198;-90
2022/12/15 09:20:14;;;;;;;9.40;5.37;;;-1.60;99.90;;;;;;4956716;28;20224;-85
2022/12/15 09:22:41;;;;;;;5.83;4.23;;;-1.40;99.90;;;;;;4992092;28;20192;-84
2022/12/15 09:25:07;;;;;;;8.20;5.53;;;-1.20;99.90;;;;;;4972529;28;20217;-84
2022/12/15 09:27:35;;;;;;;6.00;4.83;;;;;;;;;;4955369;29;20217;-87
2022/12/15 09:30:01;;;;;;;5.00;4.00;;;-1.40;99.90;;;;;;4955911;28;20210;-85
2022/12/15 09:32:27;;;;;;;8.27;6.30;;;;;;;;;;4937679;29;20187;-89
2022/12/15 09:34:53;;;;;;;8.30;3.93;;;-1.30;99.90;;;;;;4955395;29;20730;-84
2022/12/15 09:37:19;;;;;;;11.93;4.93;;;-1.30;99.90;;;;;;4960750;28;20191;-85
2022/12/15 09:39:46;;;;;;;5.90;3.73;;;;;;;;;;4978067;28;20225;-85
2022/12/15 09:42:30;;;;;;;4.30;3.70;;;-1.30;99.90;;;;;;4973337;28;20631;-84
2022/12/15 09:45:18;;;;;;;13.53;4.07;;;-0.40;99.90;;;;;;4952118;28;20551;-84
2022/12/15 09:47:55;;;;;;;8.27;3.87;;;1.50;99.90;;;;;;4964796;28;20199;-84
2022/12/15 09:50:34;;;;;;;6.20;4.93;;;-1.20;99.90;;;;;;4994256;28;20201;-84
2022/12/15 09:53:00;;;;;;;6.93;4.33;;;;;;;;;;4958392;28;20276;-85
2022/12/15 09:55:31;;;;;;;9.03;4.30;;;-1.20;99.90;;;;;;4957562;28;20198;-85
2022/12/15 09:58:29;;;;;;;5.90;4.47;;;-1.20;99.90;;;;;;4958138;28;20237;-84
2022/12/15 10:01:11;;;;;;;4.47;4.17;;;-1.20;99.90;;;;;;4947927;28;20236;-85
2022/12/15 10:03:54;;;;;;;9.97;6.47;;;0.00;99.90;;;;;;4957437;28;20550;-85
2022/12/15 10:06:41;;;;;;;9.87;4.67;;;-1.20;99.90;;;;;;4957705;28;20725;-85
2022/12/15 10:09:27;;;;;;;10.17;5.70;;;-1.20;99.90;;;;;;4954599;28;20191;-85
2022/12/15 10:12:00;;;;;;;8.37;5.30;;;0.50;99.90;;;;;;4974569;28;20178;-85
2022/12/15 10:14:44;;;;;;;5.10;3.97;;;-1.10;99.90;;;;;;4969076;28;20174;-85
2022/12/15 10:17:13;;;;;;;8.93;4.50;;;-1.10;99.90;;;;;;4973615;28;20170;-85
2022/12/15 10:19:44;;;;;;;5.33;3.67;;;1.50;99.90;;;;;;4967175;28;20215;-84
2022/12/15 10:22:26;;;;;;;8.03;3.30;;;0.30;99.90;;;;;;4955700;29;20183;-84
2022/12/15 10:24:53;;;;;;;7.60;4.13;;;-1.20;99.90;;;;;;4954996;29;20232;-83
2022/12/15 10:27:28;;;;;;;8.03;4.83;;;1.80;99.90;;;;;;4938106;29;20220;-84
2022/12/15 10:30:04;;;;;;;6.50;4.00;;;-0.60;99.90;;;;;;4955375;29;20182;-84
2022/12/15 10:32:49;;;;;;;3.97;3.43;;;-1.20;99.90;;;;;;4939991;29;20174;-85
2022/12/15 10:35:19;;;;;;;6.80;4.03;;;-1.20;99.90;;;;;;4958982;29;20176;-84
2022/12/15 10:37:45;;;;;;;6.40;3.67;;;-1.20;99.90;;;;;;4960436;29;20291;-84
2022/12/15 10:40:18;;;;;;;6.37;4.07;;;1.30;99.90;;;;;;4944919;29;20243;-85
2022/12/15 10:42:49;;;;;;;9.70;3.33;;;-1.20;99.90;;;;;;4966123;28;20238;-85
2022/12/15 10:45:36;;;;;;;10.67;4.40;;;-1.20;99.90;;;;;;4970212;29;20181;-84
2022/12/15 10:48:05;;;;;;;6.83;5.97;;;;;;;;;;4966873;29;20190;-85
2022/12/15 10:50:32;;;;;;;11.60;5.33;;;-1.10;99.90;;;;;;4959013;29;20175;-85
2022/12/15 10:52:58;;;;;;;10.90;7.90;;;;;;;;;;4942445;28;20186;-84
2022/12/15 10:55:40;;;;;;;9.47;5.63;;;-1.10;99.90;;;;;;4976152;28;20228;-85
2022/12/15 10:58:21;;;;;;;4.57;3.77;;;-1.10;99.90;;;;;;4941750;29;20263;-85
2022/12/15 11:00:47;;;;;;;15.70;7.23;;;;;;;;;;4958563;29;20181;-85
2022/12/15 11:03:22;;;;;;;6.73;3.47;;;-1.10;99.90;;;;;;4941622;29;20215;-85
2022/12/15 11:05:55;;;;;;;13.53;4.53;;;1.00;99.90;;;;;;4941248;29;20534;-85
2022/12/15 11:08:22;;;;;;;6.17;4.40;;;-1.10;99.90;;;;;;4958471;29;20235;-85
2022/12/15 11:14:05;;;;;;;3.87;3.50;;;-1.00;99.90;;;;;;4958495;29;20226;-85
2022/12/15 11:16:31;;;;;;;5.30;4.67;;;;;;;;;;4946956;28;20189;-85
2022/12/15 11:19:12;;;;;;;10.53;4.30;;;-1.00;99.90;;;;;;4957246;28;20227;-85
2022/12/15 11:21:47;;;;;;;11.93;5.00;;;-0.60;99.90;;;;;;4960190;28;20182;-84
2022/12/15 11:24:17;;;;;;;6.87;4.93;;;2.40;99.90;;;;;;4977600;28;20207;-85
2022/12/15 11:26:49;;;;;;;16.50;6.43;;;-0.80;99.90;;;;;;4977342;28;20179;-86
2022/12/15 11:29:40;;;;;;;6.80;4.53;;;1.40;99.90;;;;;;4977711;28;20193;-85
2022/12/15 11:32:08;;;;;;;12.40;4.37;;;-1.00;99.90;;;;;;4958885;28;20188;-85
2022/12/15 11:34:45;;;;;;;9.23;4.13;;;-0.30;99.90;;;;;;4977818;28;20335;-85
2022/12/15 11:37:29;;;;;;;12.07;4.70;;;-0.20;99.90;;;;;;4977137;28;20671;-85
2022/12/15 11:39:54;;;;;;;12.93;3.37;;;-1.10;99.90;;;;;;4977119;28;20217;-85
2022/12/15 11:42:41;;;;;;;5.90;4.73;;;0.60;99.90;;;;;;4959634;28;20239;-86
2022/12/15 11:45:15;;;;;;;8.13;4.43;;;-1.00;99.90;;;;;;4976732;28;20713;-86
2022/12/15 11:48:03;;;;;;;7.33;5.87;;;-1.00;99.90;;;;;;4958765;28;20277;-85
2022/12/15 11:50:53;;;;;;;8.77;4.47;;;-0.90;99.90;;;;;;4977375;28;20174;-84
2022/12/15 11:53:54;;;;;;;5.60;4.47;;;-1.00;99.90;;;;;;4976617;28;20638;-85
2022/12/15 11:56:38;;;;;;;5.37;4.87;;;-1.00;99.90;;;;;;4956997;28;20558;-85
2022/12/15 11:59:44;;;;;;;12.17;4.97;;;0.80;99.90;;;;;;4977087;28;20705;-85
2022/12/15 12:02:10;;;;;;;6.10;4.53;;;;;;;;;;4977015;28;20580;-84
2022/12/15 12:04:48;;;;;;;7.70;4.60;;;-0.90;99.90;;;;;;4959414;28;20191;-85
2022/12/15 12:07:39;;;;;;;4.40;4.00;;;-0.90;99.90;;;;;;4977298;28;20209;-85
2022/12/15 12:10:21;;;;;;;6.87;4.13;;;-1.00;99.90;;;;;;4976538;28;20189;-85
2022/12/15 12:13:14;;;;;;;7.13;3.90;;;-0.90;99.90;;;;;;4959188;28;20233;-85
2022/12/15 12:15:54;;;;;;;8.13;4.33;;;-0.90;99.90;;;;;;4988256;28;20289;-85
2022/12/15 12:18:38;;;;;;;10.60;5.47;;;-1.00;99.90;;;;;;4986639;28;20229;-85
2022/12/15 12:21:13;;;;;;;5.30;4.77;;;1.40;99.90;;;;;;4957189;29;20216;-84
2022/12/15 12:23:47;;;;;;;18.03;5.80;;;-1.00;99.90;;;;;;4957169;29;20213;-86
2022/12/15 12:26:25;;;;;;;5.90;5.40;;;-1.00;99.90;;;;;;4970836;28;20186;-85
2022/12/15 12:29:23;;;;;;;7.57;4.40;;;0.00;99.90;;;;;;4995547;28;20184;-84
2022/12/15 12:32:09;;;;;;;7.80;4.97;;;-0.90;99.90;;;;;;4989202;28;20232;-86
2022/12/15 12:35:09;;;;;;;7.67;4.30;;;-1.00;99.90;;;;;;4978120;28;20225;-84
2022/12/15 12:38:03;;;;;;;5.93;4.83;;;-1.00;99.90;;;;;;4957209;29;20176;-84
2022/12/15 12:40:56;;;;;;;11.60;6.03;;;-1.00;99.90;;;;;;4956143;28;20221;-84
2022/12/15 12:43:31;;;;;;;5.67;4.27;;;-1.00;99.90;;;;;;4958591;28;20227;-85
2022/12/15 12:46:25;;;;;;;10.07;5.33;;;-0.10;99.90;;;;;;4975988;28;20312;-85
2022/12/15 12:48:57;;;;;;;8.17;4.43;;;-1.00;99.90;;;;;;4991223;28;20225;-83
2022/12/15 12:51:32;;;;;;;9.90;5.13;;;-0.90;99.90;;;;;;4987853;28;20183;-82
2022/12/15 12:53:59;;;;;;;5.37;3.13;;;-1.00;99.90;;;;;;4972481;28;20189;-84
2022/12/15 12:56:37;;;;;;;11.50;4.03;;;0.50;99.90;;;;;;4950800;28;20218;-84
2022/12/15 12:59:24;;;;;;;9.67;4.90;;;-1.00;99.90;;;;;;4967284;28;20220;-84
2022/12/15 13:01:50;;;;;;;4.97;4.27;;;;;;;;;;4950685;29;20624;-86
2022/12/15 13:04:38;;;;;;;7.40;4.67;;;-1.10;99.90;;;;;;4956576;29;20258;-84
2022/12/15 13:07:24;;;;;;;9.00;6.17;;;-1.10;99.90;;;;;;4955987;29;20272;-84
2022/12/15 13:10:15;;;;;;;6.33;4.17;;;0.30;99.90;;;;;;4938985;29;20197;-84
2022/12/15 13:12:46;;;;;;;3.73;3.43;;;-0.80;99.90;;;;;;4939182;29;20676;-85
2022/12/15 13:15:37;;;;;;;6.67;4.57;;;-1.10;99.90;;;;;;4960908;28;20187;-85
2022/12/15 13:18:19;;;;;;;8.77;5.20;;;-1.10;99.90;;;;;;4967490;28;20254;-85
2022/12/15 13:20:47;;;;;;;3.40;3.17;;;-1.20;99.90;;;;;;4946253;29;20201;-85
2022/12/15 13:23:22;;;;;;;6.77;5.00;;;-1.20;99.90;;;;;;4955877;29;20208;-83
2022/12/15 13:25:57;;;;;;;6.27;3.73;;;-1.30;99.90;;;;;;4939396;29;20255;-84
2022/12/15 13:28:43;;;;;;;10.50;6.23;;;1.00;99.90;;;;;;4938800;29;20193;-85
2022/12/15 13:31:23;;;;;;;9.33;4.40;;;0.90;99.90;;;;;;4956003;29;20175;-84
2022/12/15 13:33:49;;;;;;;9.03;4.50;;;0.90;99.90;;;;;;4959891;28;20630;-84
2022/12/15 13:36:33;;;;;;;7.70;4.97;;;0.40;99.90;;;;;;4977392;28;20191;-84
2022/12/15 13:38:59;;;;;;;8.10;6.50;;;;;;;;;;4978583;28;20680;-86
2022/12/15 13:41:26;;;;;;;5.97;4.17;;;;;;;;;;4979047;28;20184;-86
2022/12/15 13:43:53;;;;;;;8.50;5.87;;;-1.30;99.90;;;;;;4995954;28;20310;-85
2022/12/15 13:46:31;;;;;;;8.50;5.47;;;0.90;99.90;;;;;;4995070;28;20192;-85
2022/12/15 13:49:25;;;;;;;17.35;7.55;;;-1.40;99.90;;;;;;4977082;28;20428;-86
2022/12/15 13:51:59;;;;;;;5.70;3.90;;;-1.30;99.90;;;;;;4995713;28;20177;-86
2022/12/15 13:54:32;;;;;;;4.60;4.13;;;-1.40;99.90;;;;;;4995674;28;20170;-86
2022/12/15 13:57:03;;;;;;;5.97;3.83;;;-0.40;99.90;;;;;;4996701;28;20176;-87
2022/12/15 13:59:32;;;;;;;7.60;5.33;;;-1.40;99.90;;;;;;4978137;28;20690;-86
2022/12/15 14:01:58;;;;;;;8.63;5.10;;;-1.30;99.90;;;;;;4994618;28;20203;-85
2022/12/15 14:04:25;;;;;;;7.43;5.13;;;;;;;;;;4995825;28;20181;-85
2022/12/15 14:06:55;;;;;;;4.17;3.03;;;-1.30;99.90;;;;;;4977389;28;20189;-86
2022/12/15 14:09:31;;;;;;;5.23;3.60;;;0.20;99.90;;;;;;4995255;28;20171;-85
2022/12/15 14:11:57;;;;;;;6.03;3.17;;;;;;;;;;4977055;28;20298;-86
2022/12/15 14:14:27;;;;;;;8.33;4.80;;;-1.40;99.90;;;;;;4977016;28;20182;-88
2022/12/15 14:16:59;;;;;;;7.63;5.93;;;-1.30;99.90;;;;;;4995100;28;20174;-85
2022/12/15 14:19:26;;;;;;;9.43;4.47;;;;;;;;;;4978565;28;20572;-85
2022/12/15 14:21:56;;;;;;;8.90;5.57;;;-1.40;99.90;;;;;;4940894;28;20193;-86
2022/12/15 14:24:23;;;;;;;8.97;5.93;;;;;;;;;;4980711;28;20174;-86
2022/12/15 14:26:49;;;;;;;6.10;5.40;;;;;;;;;;4962615;28;20275;-85
2022/12/15 14:29:16;;;;;;;10.03;5.60;;;-1.40;99.90;;;;;;4971242;28;20189;-87
2022/12/15 14:31:50;;;;;;;4.20;3.87;;;-1.50;99.90;;;;;;4965661;28;20183;-87
2022/12/15 14:34:31;;;;;;;4.80;4.30;;;-1.50;99.90;;;;;;4954277;28;20181;-87
2022/12/15 14:37:01;;;;;;;8.00;5.73;;;-1.50;99.90;;;;;;4953262;28;20654;-87
2022/12/15 14:39:39;;;;;;;6.67;3.10;;;-1.50;99.90;;;;;;4972021;28;20208;-86
2022/12/15 14:42:06;;;;;;;16.53;4.97;;;-1.50;99.90;;;;;;4955410;28;20182;-87
2022/12/15 14:44:43;;;;;;;6.17;5.07;;;-1.60;99.90;;;;;;4954092;28;20191;-87
2022/12/15 14:47:20;;;;;;;6.80;4.33;;;-1.50;99.90;;;;;;4964426;28;20188;-87
2022/12/15 14:49:47;;;;;;;7.13;6.37;;;;;;;;;;4959571;28;20181;-86
2022/12/15 14:52:41;;;;;;;2.43;2.33;;;-1.60;99.90;;;;;;4930854;28;20191;-88
2022/12/15 14:55:31;;;;;;;8.23;4.73;;;-1.60;99.90;;;;;;4970917;28;20188;-89
2022/12/15 14:57:58;;;;;;;5.00;3.33;;;-1.60;99.90;;;;;;4942865;28;20176;-87
2022/12/15 15:00:35;;;;;;;8.33;5.03;;;-1.60;99.90;;;;;;4957956;28;20222;-88
2022/12/15 15:03:21;;;;;;;5.93;3.97;;;-1.70;99.90;;;;;;4974359;28;20213;-88
2022/12/15 15:06:10;;;;;;;10.47;7.53;;;-1.60;99.90;;;;;;4977028;28;20182;-87
2022/12/15 15:08:46;;;;;;;7.53;5.43;;;-1.70;99.90;;;;;;4976042;28;20690;-88
2022/12/15 15:11:28;;;;;;;8.97;5.47;;;-1.80;99.90;;;;;;4951696;28;20194;-89
2022/12/15 15:13:57;;;;;;;4.40;4.00;;;-1.70;99.90;;;;;;4955982;28;20334;-88
2022/12/15 15:16:23;;;;;;;6.23;5.63;;;;;;;;;;4938700;29;20186;-88
2022/12/15 15:18:51;;;;;;;4.87;4.47;;;-1.80;99.90;;;;;;4952366;28;20249;-87
2022/12/15 15:21:26;;;;;;;5.10;4.70;;;-1.80;99.90;;;;;;4964997;28;20560;-87
2022/12/15 15:24:09;;;;;;;12.00;7.30;;;-1.80;99.90;;;;;;4974579;28;20231;-87
2022/12/15 15:26:35;;;;;;;8.33;5.33;;;;;;;;;;4954445;28;20187;-86
2022/12/15 15:29:01;;;;;;;11.40;5.70;;;;;;;;;;4956527;28;20201;-86
2022/12/15 15:31:33;;;;;;;5.03;3.87;;;-1.80;99.90;;;;;;4960633;28;20241;-89
2022/12/15 15:33:59;;;;;;;2.47;2.37;;;;;;;;;;4960503;28;20182;-85
2022/12/15 15:36:46;;;;;;;10.27;6.37;;;-1.80;99.90;;;;;;4959552;28;20275;-87
2022/12/15 15:39:14;;;;;;;10.67;4.60;;;-1.80;99.90;;;;;;4978709;28;20272;-87
2022/12/15 15:41:40;;;;;;;4.90;3.83;;;;;;;;;;4954506;28;20199;-87
2022/12/15 15:44:13;;;;;;;5.03;4.63;;;-1.80;99.90;;;;;;4933552;28;20266;-86
2022/12/15 15:46:48;;;;;;;2.83;2.67;;;-1.80;99.90;;;;;;4949743;28;20638;-87
2022/12/15 15:49:18;;;;;;;4.63;4.17;;;-1.80;99.90;;;;;;4950177;28;20193;-87
2022/12/15 15:51:44;;;;;;;6.43;5.30;;;;;;;;;;4973187;28;20212;-86
2022/12/15 15:54:13;;;;;;;3.97;3.67;;;-1.80;99.90;;;;;;4963519;28;20196;-85
2022/12/15 15:56:40;;;;;;;22.77;5.33;;;;;;;;;;4978425;28;20178;-86
2022/12/15 15:59:12;;;;;;;7.03;5.00;;;-1.90;99.90;;;;;;4948716;28;20264;-87
2022/12/15 16:01:38;;;;;;;3.47;3.27;;;;;;;;;;4966267;28;20303;-87
2022/12/15 16:04:07;;;;;;;5.13;3.30;;;;;;;;;;4953268;28;20183;-87
2022/12/15 16:06:33;;;;;;;4.43;4.13;;;;;;;;;;4952664;28;20595;-87
2022/12/15 16:08:59;;;;;;;11.13;4.40;;;;;;;;;;4950274;28;20192;-89
2022/12/15 16:11:29;;;;;;;8.97;3.97;;;-2.00;99.90;;;;;;4965968;28;20189;-87
2022/12/15 16:13:55;;;;;;;6.23;3.37;;;;;;;;;;4966439;28;20178;-87
2022/12/15 16:16:25;;;;;;;10.33;5.63;;;-2.10;99.90;;;;;;4970143;28;20182;-87